createdAt,value
2024-01-16T00:00:34.604Z,73.87
2024-01-16T00:03:04.322Z,74.12
2024-01-16T00:05:33.851Z,73.61
2024-01-16T00:08:03.635Z,73.85
2024-01-16T00:10:33.206Z,73.96
2024-01-16T00:13:02.764Z,74.55
2024-01-16T00:15:34.858Z,73.52
2024-01-16T00:18:04.497Z,73.69
2024-01-16T00:20:34.036Z,72.76
2024-01-16T00:23:03.848Z,72.96
2024-01-16T00:25:33.456Z,73.91
2024-01-16T00:28:02.917Z,73.43
2024-01-16T00:30:35.477Z,74.25
2024-01-16T00:33:05.097Z,73.59
2024-01-16T00:35:34.806Z,73.14
2024-01-16T00:38:04.358Z,72.93
2024-01-16T00:40:33.902Z,73.02
2024-01-16T00:43:03.523Z,71.82
2024-01-16T00:45:35.687Z,71.43
2024-01-16T00:48:06.750Z,72.07
2024-01-16T00:50:36.435Z,71.93
2024-01-16T00:53:06.473Z,71.61
2024-01-16T00:55:36.064Z,71.99
2024-01-16T00:58:05.548Z,72.38
2024-01-16T01:00:38.626Z,72.29
2024-01-16T01:03:08.609Z,70.93
2024-01-16T01:05:38.093Z,71.30
2024-01-16T01:08:08.658Z,71.68
2024-01-16T01:10:38.189Z,72.07
2024-01-16T01:13:08.021Z,71.48
2024-01-16T01:15:40.122Z,72.18
2024-01-16T01:18:10.595Z,72.71
2024-01-16T01:20:40.441Z,72.52
2024-01-16T01:23:10.861Z,72.05
2024-01-16T01:25:40.767Z,72.26
2024-01-16T01:28:10.262Z,71.82
2024-01-16T01:30:43.119Z,72.15
2024-01-16T01:33:13.494Z,71.69
2024-01-16T01:35:43.322Z,71.59
2024-01-16T01:38:12.857Z,72.51
2024-01-16T01:40:43.550Z,72.36
2024-01-16T01:43:24.549Z,72.31
2024-01-16T01:46:12.271Z,72.47
2024-01-16T01:48:43.941Z,72.00
2024-01-16T01:51:15.602Z,72.10
2024-01-16T01:53:47.907Z,72.10
2024-01-16T01:56:19.616Z,71.53
2024-01-16T01:58:50.622Z,72.05
2024-01-16T02:01:24.185Z,71.75
2024-01-16T02:03:56.397Z,71.24
2024-01-16T02:06:25.948Z,71.07
2024-01-16T02:08:55.545Z,70.88
2024-01-16T02:11:25.157Z,71.07
2024-01-16T02:13:54.816Z,71.21
2024-01-16T02:16:28.178Z,70.96
2024-01-16T02:18:57.737Z,71.46
2024-01-16T02:21:31.156Z,72.06
2024-01-16T02:24:03.437Z,72.34
2024-01-16T02:26:33.520Z,71.05
2024-01-16T02:29:05.131Z,71.69
2024-01-16T02:31:35.295Z,71.41
2024-01-16T02:34:05.778Z,71.74
2024-01-16T02:36:36.656Z,71.38
2024-01-16T02:39:09.513Z,71.40
2024-01-16T02:41:39.144Z,72.21
2024-01-16T02:44:08.770Z,71.05
2024-01-16T02:46:40.361Z,71.05
2024-01-16T02:49:10.433Z,70.94
2024-01-16T02:51:39.984Z,70.51
2024-01-16T02:54:13.206Z,71.11
2024-01-16T02:56:42.866Z,71.00
2024-01-16T02:59:12.907Z,71.37
2024-01-16T03:01:42.439Z,70.99
2024-01-16T03:04:12.259Z,70.94
2024-01-16T03:06:41.954Z,71.42
2024-01-16T03:09:14.354Z,70.91
2024-01-16T03:11:43.886Z,70.67
2024-01-16T03:14:14.446Z,70.63
2024-01-16T03:16:44.012Z,71.38
2024-01-16T03:19:13.570Z,71.07
2024-01-16T03:21:43.133Z,71.77
2024-01-16T03:24:15.679Z,71.10
2024-01-16T03:26:45.261Z,70.98
2024-01-16T03:29:14.979Z,71.33
2024-01-16T03:31:44.456Z,71.26
2024-01-16T03:34:13.976Z,71.89
2024-01-16T03:36:43.505Z,71.32
2024-01-16T03:39:15.819Z,71.86
2024-01-16T03:41:45.549Z,72.43
2024-01-16T03:44:15.403Z,71.93
2024-01-16T03:46:45.272Z,71.99
2024-01-16T03:49:14.903Z,71.83
2024-01-16T03:51:47.558Z,72.28
2024-01-16T03:54:19.967Z,72.44
2024-01-16T03:56:49.528Z,71.93
2024-01-16T03:59:19.106Z,72.45
2024-01-16T04:01:49.772Z,72.37
2024-01-16T04:04:19.397Z,72.73
2024-01-16T04:06:49.938Z,72.11
2024-01-16T04:09:22.088Z,72.24
2024-01-16T04:11:54.012Z,72.29
2024-01-16T04:14:24.120Z,72.89
2024-01-16T04:16:53.628Z,72.81
2024-01-16T04:19:23.834Z,72.89
2024-01-16T04:21:53.383Z,72.61
2024-01-16T04:24:25.525Z,72.75
2024-01-16T04:26:55.493Z,73.13
2024-01-16T04:29:25.052Z,73.24
2024-01-16T04:31:54.544Z,72.86
2024-01-16T04:34:24.176Z,72.94
2024-01-16T04:36:53.737Z,72.75
2024-01-16T04:39:26.146Z,73.00
2024-01-16T04:41:55.812Z,72.29
2024-01-16T04:44:25.387Z,71.59
2024-01-16T04:46:55.143Z,71.86
2024-01-16T04:49:25.294Z,72.26
2024-01-16T04:51:55.231Z,72.31
2024-01-16T04:54:27.328Z,72.23
2024-01-16T04:56:57.121Z,72.19
2024-01-16T04:59:26.650Z,71.73
2024-01-16T05:01:56.390Z,71.46
2024-01-16T05:04:25.933Z,71.61
2024-01-16T05:06:56.322Z,71.28
2024-01-16T05:09:28.420Z,71.36
2024-01-16T05:11:58.032Z,71.87
2024-01-16T05:14:28.137Z,71.66
2024-01-16T05:16:57.965Z,71.70
2024-01-16T05:19:27.853Z,71.52
2024-01-16T05:21:57.454Z,71.33
2024-01-16T05:24:29.690Z,71.15
2024-01-16T05:26:59.231Z,71.85
2024-01-16T05:29:28.746Z,71.59
2024-01-16T05:31:58.569Z,71.23
2024-01-16T05:34:29.109Z,71.85
2024-01-16T05:36:58.848Z,71.81
2024-01-16T05:39:33.886Z,72.22
2024-01-16T05:42:04.408Z,72.61
2024-01-16T05:44:34.049Z,72.58
2024-01-16T05:47:05.728Z,72.14
2024-01-16T05:49:35.429Z,72.18
2024-01-16T05:52:05.057Z,71.77
2024-01-16T05:54:37.339Z,72.41
2024-01-16T05:57:07.172Z,72.29
2024-01-16T05:59:36.679Z,72.01
2024-01-16T06:02:06.387Z,72.33
2024-01-16T06:04:37.493Z,72.31
2024-01-16T06:07:08.200Z,72.51
2024-01-16T06:09:42.376Z,72.56
2024-01-16T06:12:13.424Z,71.99
2024-01-16T06:14:42.997Z,72.31
2024-01-16T06:17:12.660Z,72.34
2024-01-16T06:19:42.297Z,72.33
2024-01-16T06:22:12.954Z,72.33
2024-01-16T06:24:45.049Z,72.12
2024-01-16T06:27:20.459Z,72.15
2024-01-16T06:29:50.292Z,71.98
2024-01-16T06:32:20.057Z,72.07
2024-01-16T06:34:49.598Z,72.07
2024-01-16T06:37:19.309Z,72.28
2024-01-16T06:39:51.401Z,72.51
2024-01-16T06:42:21.009Z,72.61
2024-01-16T06:44:50.576Z,72.81
2024-01-16T06:47:20.164Z,72.78
2024-01-16T06:49:49.827Z,72.58
2024-01-16T06:52:19.422Z,72.37
2024-01-16T06:54:51.533Z,71.79
2024-01-16T06:57:21.218Z,71.75
2024-01-16T06:59:51.053Z,71.40
2024-01-16T07:02:20.619Z,71.88
2024-01-16T07:04:50.203Z,71.54
2024-01-16T07:07:19.980Z,71.97
2024-01-16T07:09:52.644Z,71.82
2024-01-16T07:12:22.193Z,71.96
2024-01-16T07:14:51.935Z,71.74
2024-01-16T07:17:21.610Z,71.34
2024-01-16T07:19:51.191Z,71.43
2024-01-16T07:22:20.749Z,71.86
2024-01-16T07:24:52.853Z,71.82
2024-01-16T07:27:22.443Z,71.72
2024-01-16T07:29:52.058Z,72.18
2024-01-16T07:32:21.671Z,72.49
2024-01-16T07:34:52.615Z,72.53
2024-01-16T07:37:22.550Z,72.31
2024-01-16T07:39:54.668Z,72.31
2024-01-16T07:42:24.198Z,72.25
2024-01-16T07:44:53.928Z,72.47
2024-01-16T07:47:23.673Z,72.54
2024-01-16T07:49:53.179Z,72.41
2024-01-16T07:52:22.691Z,72.31
2024-01-16T07:54:54.766Z,72.25
2024-01-16T07:57:24.279Z,72.35
2024-01-16T07:59:53.854Z,72.54
2024-01-16T08:02:24.887Z,72.63
2024-01-16T08:04:54.674Z,72.42
2024-01-16T08:07:24.209Z,72.35
2024-01-16T08:09:56.347Z,72.07
2024-01-16T08:12:25.921Z,72.20
2024-01-16T08:14:55.658Z,71.75
2024-01-16T08:17:25.357Z,71.66
2024-01-16T08:19:54.920Z,71.63
2024-01-16T08:22:24.590Z,72.09
2024-01-16T08:24:56.892Z,72.20
2024-01-16T08:27:26.468Z,71.44
2024-01-16T08:29:55.989Z,71.48
2024-01-16T08:32:25.666Z,71.29
2024-01-16T08:34:55.345Z,71.05
2024-01-16T08:37:26.781Z,70.91
2024-01-16T08:39:58.953Z,70.93
2024-01-16T08:42:28.490Z,71.30
2024-01-16T08:44:58.063Z,71.26
2024-01-16T08:47:27.741Z,71.14
2024-01-16T08:49:57.539Z,70.83
2024-01-16T08:52:27.063Z,70.74
2024-01-16T08:54:59.802Z,70.74
2024-01-16T08:57:31.130Z,70.79
2024-01-16T09:00:01.024Z,70.54
2024-01-16T09:02:32.133Z,70.66
2024-01-16T09:05:02.024Z,70.26
2024-01-16T09:07:31.838Z,70.42
2024-01-16T09:10:03.959Z,70.30
2024-01-16T09:12:33.509Z,70.49
2024-01-16T09:15:03.493Z,70.78
2024-01-16T09:17:33.217Z,70.53
2024-01-16T09:20:03.042Z,70.50
2024-01-16T09:22:32.521Z,70.61
2024-01-16T09:25:05.222Z,70.48
2024-01-16T09:27:34.791Z,70.49
2024-01-16T09:30:04.546Z,70.49
2024-01-16T09:32:35.602Z,70.01
2024-01-16T09:35:07.718Z,69.88
2024-01-16T09:37:37.269Z,70.22
2024-01-16T09:40:10.998Z,70.43
2024-01-16T09:42:41.863Z,70.21
2024-01-16T09:45:13.059Z,69.66
2024-01-16T09:47:43.637Z,70.25
2024-01-16T09:50:14.606Z,70.26
2024-01-16T09:52:44.120Z,70.20
2024-01-16T09:55:16.520Z,70.23
2024-01-16T09:57:49.501Z,70.40
2024-01-16T10:00:20.032Z,70.55
2024-01-16T10:02:50.493Z,70.14
2024-01-16T10:05:20.180Z,70.33
2024-01-16T10:07:50.222Z,70.49
2024-01-16T10:10:30.513Z,70.44
2024-01-16T10:13:08.413Z,69.82
2024-01-16T10:15:38.893Z,70.09
2024-01-16T10:18:08.544Z,69.98
2024-01-16T10:20:39.034Z,69.55
2024-01-16T10:23:08.591Z,69.04
2024-01-16T10:25:41.203Z,69.40
2024-01-16T10:28:12.924Z,69.54
2024-01-16T10:30:42.572Z,69.36
2024-01-16T10:33:19.656Z,69.44
2024-01-16T10:35:49.354Z,69.39
2024-01-16T10:38:26.798Z,68.71
2024-01-16T10:41:12.951Z,68.51
2024-01-16T10:43:43.297Z,68.02
2024-01-16T10:46:14.589Z,68.40
2024-01-16T10:48:46.258Z,68.63
2024-01-16T10:51:19.044Z,67.87
2024-01-16T10:53:50.295Z,67.99
2024-01-16T10:56:23.963Z,67.90
2024-01-16T10:59:09.514Z,67.69
2024-01-16T11:01:39.709Z,67.94
2024-01-16T11:04:09.955Z,68.04
2024-01-16T11:06:40.085Z,67.89
2024-01-16T11:09:11.695Z,67.24
2024-01-16T11:11:44.368Z,67.46
2024-01-16T11:14:16.052Z,67.07
2024-01-16T11:16:46.279Z,66.83
2024-01-16T11:19:31.381Z,66.53
2024-01-16T11:22:06.772Z,67.05
2024-01-16T11:24:36.396Z,67.10
2024-01-16T11:27:09.588Z,66.63
2024-01-16T11:29:42.776Z,66.71
2024-01-16T11:32:23.157Z,67.07
2024-01-16T11:35:00.942Z,66.41
2024-01-16T11:37:34.697Z,66.40
2024-01-16T11:40:23.335Z,66.85
2024-01-16T11:42:57.280Z,66.39
2024-01-16T11:45:55.148Z,66.40
2024-01-16T11:48:24.908Z,66.30
2024-01-16T11:50:55.026Z,65.58
2024-01-16T11:53:42.003Z,65.96
2024-01-16T11:56:44.013Z,65.08
2024-01-16T12:00:01.243Z,65.14
2024-01-16T12:02:45.517Z,65.31
2024-01-16T12:05:15.490Z,65.38
2024-01-16T12:07:53.842Z,66.43
2024-01-16T12:10:24.839Z,66.23
2024-01-16T12:12:55.465Z,65.31
2024-01-16T12:15:27.580Z,66.57
2024-01-16T12:17:58.561Z,65.94
2024-01-16T12:20:29.783Z,66.95
2024-01-16T12:23:01.197Z,66.55
2024-01-16T12:26:00.135Z,66.77
2024-01-16T12:28:31.981Z,66.61
2024-01-16T12:31:06.765Z,67.04
2024-01-16T12:33:36.441Z,66.50
2024-01-16T12:36:07.660Z,67.37
2024-01-16T12:38:37.434Z,66.92
2024-01-16T12:41:12.101Z,66.40
2024-01-16T12:43:41.843Z,66.55
2024-01-16T12:46:15.415Z,66.54
2024-01-16T12:48:53.391Z,66.92
2024-01-16T12:51:34.023Z,67.21
2024-01-16T12:54:15.270Z,66.78
2024-01-16T12:56:45.085Z,67.51
2024-01-16T12:59:15.658Z,67.14
2024-01-16T13:01:48.995Z,66.91
2024-01-16T13:04:20.776Z,66.71
2024-01-16T13:06:50.856Z,67.16
2024-01-16T13:09:21.064Z,67.36
2024-01-16T13:11:52.653Z,67.21
2024-01-16T13:14:22.995Z,67.09
2024-01-16T13:16:57.264Z,66.84
2024-01-16T13:19:27.683Z,66.71
2024-01-16T13:21:57.993Z,67.34
2024-01-16T13:24:27.560Z,66.88
2024-01-16T13:26:57.148Z,66.49
2024-01-16T13:29:26.731Z,66.46
2024-01-16T13:31:59.669Z,67.09
2024-01-16T13:34:29.188Z,66.88
2024-01-16T13:37:15.194Z,66.74
2024-01-16T13:39:46.425Z,66.45
2024-01-16T13:42:19.579Z,66.83
2024-01-16T13:44:49.694Z,67.11
2024-01-16T13:47:23.488Z,67.31
2024-01-16T13:49:53.181Z,67.31
2024-01-16T13:52:25.407Z,67.29
2024-01-16T13:54:56.000Z,67.30
2024-01-16T13:57:25.877Z,66.65
2024-01-16T13:59:55.506Z,67.53
2024-01-16T14:02:27.669Z,67.23
2024-01-16T14:04:57.274Z,67.18
2024-01-16T14:07:26.984Z,67.42
2024-01-16T14:09:56.518Z,67.69
2024-01-16T14:12:27.337Z,67.05
2024-01-16T14:14:57.113Z,67.43
2024-01-16T14:17:29.777Z,67.29
2024-01-16T14:20:00.450Z,67.34
2024-01-16T14:22:29.948Z,67.09
2024-01-16T14:24:59.402Z,67.07
2024-01-16T14:27:28.865Z,67.02
2024-01-16T14:29:58.631Z,66.83
2024-01-16T14:32:30.818Z,66.99
2024-01-16T14:35:00.334Z,67.22
2024-01-16T14:37:30.024Z,67.67
2024-01-16T14:40:02.206Z,67.75
2024-01-16T14:42:35.283Z,66.95
2024-01-16T14:45:04.879Z,67.45
2024-01-16T14:47:37.140Z,67.09
2024-01-16T14:50:07.829Z,66.90
2024-01-16T14:52:37.316Z,66.90
2024-01-16T14:55:08.502Z,67.01
2024-01-16T14:57:43.173Z,67.16
2024-01-16T15:00:21.159Z,66.80
2024-01-16T15:02:53.897Z,66.26
2024-01-16T15:05:24.367Z,66.42
2024-01-16T15:07:55.533Z,66.78
2024-01-16T15:10:25.090Z,66.59
2024-01-16T15:12:54.805Z,66.52
2024-01-16T15:15:24.603Z,66.88
2024-01-16T15:17:56.802Z,66.82
2024-01-16T15:20:27.132Z,67.40
2024-01-16T15:22:57.886Z,67.65
2024-01-16T15:25:27.601Z,68.43
2024-01-16T15:27:57.272Z,69.09
2024-01-16T15:30:32.864Z,69.94
2024-01-16T15:33:05.553Z,70.18
2024-01-16T15:35:35.343Z,70.22
2024-01-16T15:38:05.288Z,70.68
2024-01-16T15:40:35.044Z,71.03
2024-01-16T15:43:05.236Z,71.46
2024-01-16T15:45:34.848Z,71.74
2024-01-16T15:48:09.120Z,71.58
2024-01-16T15:50:40.296Z,71.73
2024-01-16T15:53:09.964Z,72.18
2024-01-16T15:55:39.765Z,72.72
2024-01-16T15:58:09.279Z,72.28
2024-01-16T16:00:39.187Z,72.65
2024-01-16T16:03:11.828Z,72.36
2024-01-16T16:05:41.416Z,72.15
2024-01-16T16:08:11.624Z,72.15
2024-01-16T16:10:42.593Z,72.26
2024-01-16T16:13:10.687Z,72.21
2024-01-16T16:15:40.226Z,71.85
2024-01-16T16:18:12.957Z,72.01
2024-01-16T16:20:42.640Z,72.43
2024-01-16T16:23:12.181Z,72.04
2024-01-16T16:25:48.906Z,72.00
2024-01-16T16:28:18.402Z,71.76
2024-01-16T16:30:47.955Z,71.75
2024-01-16T16:33:20.162Z,71.72
2024-01-16T16:35:49.799Z,70.95
2024-01-16T16:38:20.190Z,71.13
2024-01-16T16:40:50.126Z,71.80
2024-01-16T16:43:19.640Z,71.68
2024-01-16T16:45:50.532Z,71.35
2024-01-16T16:48:22.686Z,71.10
2024-01-16T16:50:52.273Z,70.86
2024-01-16T16:53:22.880Z,71.14
2024-01-16T16:55:53.518Z,70.24
2024-01-16T16:58:23.031Z,70.28
2024-01-16T17:00:52.562Z,70.12
2024-01-16T17:03:24.665Z,69.79
2024-01-16T17:05:55.216Z,69.73
2024-01-16T17:08:24.772Z,69.82
2024-01-16T17:10:54.261Z,70.13
2024-01-16T17:13:24.411Z,70.30
2024-01-16T17:15:55.033Z,70.45
2024-01-16T17:18:27.565Z,69.63
2024-01-16T17:20:57.907Z,69.72
2024-01-16T17:23:27.472Z,69.39
2024-01-16T17:25:58.841Z,70.31
2024-01-16T17:28:29.525Z,69.68
2024-01-16T17:30:59.961Z,69.26
2024-01-16T17:33:32.529Z,69.33
2024-01-16T17:36:09.029Z,69.55
2024-01-16T17:38:38.642Z,69.86
2024-01-16T17:41:08.787Z,70.21
2024-01-16T17:43:38.274Z,70.52
2024-01-16T17:46:08.056Z,71.04
2024-01-16T17:48:41.451Z,71.29
2024-01-16T17:51:11.828Z,71.45
2024-01-16T17:53:41.581Z,71.84
2024-01-16T17:56:14.042Z,71.19
2024-01-16T17:58:44.847Z,71.07
2024-01-16T18:01:17.042Z,70.78
2024-01-16T18:03:49.503Z,70.60
2024-01-16T18:06:22.126Z,70.35
2024-01-16T18:08:51.816Z,70.24
2024-01-16T18:11:21.676Z,69.80
2024-01-16T18:13:51.280Z,69.84
2024-01-16T18:16:20.849Z,69.88
2024-01-16T18:18:53.198Z,69.46
2024-01-16T18:21:22.990Z,69.08
2024-01-16T18:23:52.801Z,69.11
2024-01-16T18:26:22.293Z,69.01
2024-01-16T18:28:54.392Z,69.34
2024-01-16T18:31:23.985Z,68.23
2024-01-16T18:33:56.122Z,67.51
2024-01-16T18:36:27.838Z,67.45
2024-01-16T18:38:57.327Z,67.20
2024-01-16T18:41:26.882Z,67.26
2024-01-16T18:43:56.368Z,66.25
2024-01-16T18:46:27.189Z,66.27
2024-01-16T18:49:00.313Z,66.14
2024-01-16T18:51:29.910Z,65.43
2024-01-16T18:53:59.440Z,65.46
2024-01-16T18:56:28.989Z,65.39
2024-01-16T18:58:58.784Z,65.38
2024-01-16T19:01:30.338Z,65.28
2024-01-16T19:04:02.647Z,65.50
2024-01-16T19:06:32.288Z,65.02
2024-01-16T19:09:02.298Z,64.99
2024-01-16T19:11:31.920Z,65.24
2024-01-16T19:14:01.589Z,64.59
2024-01-16T19:16:32.142Z,64.43
2024-01-16T19:19:04.416Z,64.46
2024-01-16T19:21:33.948Z,64.14
2024-01-16T19:24:05.411Z,64.29
2024-01-16T19:26:34.985Z,64.51
2024-01-16T19:29:04.510Z,64.29
2024-01-16T19:31:36.630Z,63.87
2024-01-16T19:34:10.970Z,63.92
2024-01-16T19:36:41.113Z,64.05
2024-01-16T19:39:15.668Z,63.64
2024-01-16T19:41:45.533Z,63.36
2024-01-16T19:44:15.018Z,63.60
2024-01-16T19:46:45.465Z,63.51
2024-01-16T19:49:17.913Z,63.34
2024-01-16T19:51:47.578Z,63.37
2024-01-16T19:54:17.145Z,63.90
2024-01-16T19:56:46.709Z,63.65
2024-01-16T19:59:16.221Z,63.77
2024-01-16T20:01:45.799Z,63.83
2024-01-16T20:04:17.866Z,63.75
2024-01-16T20:06:48.396Z,64.18
2024-01-16T20:09:20.162Z,63.85
2024-01-16T20:11:49.917Z,63.70
2024-01-16T20:14:19.562Z,63.69
2024-01-16T20:16:49.116Z,63.57
2024-01-16T20:19:21.239Z,63.52
2024-01-16T20:21:52.215Z,63.48
2024-01-16T20:24:22.374Z,63.52
2024-01-16T20:26:52.107Z,63.60
2024-01-16T20:29:21.985Z,63.28
2024-01-16T20:31:51.558Z,63.30
2024-01-16T20:34:26.038Z,62.96
2024-01-16T20:36:56.285Z,62.96
2024-01-16T20:39:25.863Z,63.16
2024-01-16T20:41:55.698Z,62.47
2024-01-16T20:44:28.091Z,62.73
2024-01-16T20:46:57.801Z,62.67
2024-01-16T20:49:30.005Z,62.76
2024-01-16T20:51:59.597Z,63.01
2024-01-16T20:54:30.587Z,62.81
2024-01-16T20:57:00.172Z,62.81
2024-01-16T20:59:29.841Z,62.79
2024-01-16T21:01:59.369Z,62.25
2024-01-16T21:04:31.641Z,62.52
2024-01-16T21:07:05.553Z,62.55
2024-01-16T21:09:35.417Z,62.48
2024-01-16T21:12:06.091Z,62.52
2024-01-16T21:14:35.985Z,62.56
2024-01-16T21:17:08.666Z,62.73
2024-01-16T21:19:40.840Z,62.59
2024-01-16T21:22:10.462Z,62.67
2024-01-16T21:24:40.309Z,62.70
2024-01-16T21:27:11.422Z,62.43
2024-01-16T21:29:45.569Z,62.66
2024-01-16T21:32:15.376Z,62.45
2024-01-16T21:34:50.131Z,62.33
2024-01-16T21:37:19.990Z,62.56
2024-01-16T21:39:49.546Z,62.75
2024-01-16T21:42:19.164Z,62.38
2024-01-16T21:44:49.612Z,62.27
2024-01-16T21:47:22.030Z,62.52
2024-01-16T21:49:54.321Z,62.52
2024-01-16T21:52:24.765Z,62.40
2024-01-16T21:54:54.612Z,62.12
2024-01-16T21:57:24.194Z,62.30
2024-01-16T21:59:54.501Z,62.46
2024-01-16T22:02:24.939Z,62.49
2024-01-16T22:04:57.138Z,62.24
2024-01-16T22:07:27.004Z,62.16
2024-01-16T22:09:56.481Z,61.98
2024-01-16T22:12:26.424Z,61.95
2024-01-16T22:14:57.294Z,62.03
2024-01-16T22:17:30.418Z,62.52
2024-01-16T22:20:02.682Z,61.83
2024-01-16T22:22:33.039Z,61.69
2024-01-16T22:25:03.940Z,61.73
2024-01-16T22:27:33.488Z,61.84
2024-01-16T22:30:03.693Z,61.86
2024-01-16T22:32:33.298Z,61.73
2024-01-16T22:35:05.470Z,61.77
2024-01-16T22:37:35.021Z,61.67
2024-01-16T22:40:05.277Z,61.38
2024-01-16T22:42:34.761Z,61.52
2024-01-16T22:45:04.376Z,61.31
2024-01-16T22:47:33.984Z,61.29
2024-01-16T22:50:06.365Z,61.56
2024-01-16T22:52:37.077Z,61.22
2024-01-16T22:55:07.596Z,61.41
2024-01-16T22:57:37.076Z,61.48
2024-01-16T23:00:17.978Z,61.27
2024-01-16T23:02:48.588Z,61.02
2024-01-16T23:05:21.743Z,61.21
2024-01-16T23:07:51.243Z,61.62
2024-01-16T23:10:21.197Z,61.76
2024-01-16T23:12:50.748Z,61.16
2024-01-16T23:15:20.520Z,61.08
2024-01-16T23:17:50.708Z,61.02
2024-01-16T23:20:23.649Z,60.98
2024-01-16T23:22:53.211Z,61.19
2024-01-16T23:25:22.757Z,61.40
2024-01-16T23:27:53.755Z,60.83
2024-01-16T23:30:23.411Z,61.20
2024-01-16T23:32:52.962Z,60.92
2024-01-16T23:35:25.150Z,60.83
2024-01-16T23:37:56.793Z,60.68
2024-01-16T23:40:26.866Z,60.88
2024-01-16T23:42:56.987Z,61.11
2024-01-16T23:45:32.764Z,61.01
2024-01-16T23:48:03.469Z,61.20
2024-01-16T23:50:38.172Z,61.05
2024-01-16T23:53:07.810Z,61.30
2024-01-16T23:55:37.290Z,61.24
2024-01-16T23:58:10.043Z,61.32
